Terminal Aerodrome Forecast
Issued by NWS Sterling, VA

Current Version | Previous Version | Graphics & Text | Print | Product List | Glossary On
Versions: 1 2 3 4 5 6 7 8 9 10 11 12 13 14 15 16 17 18 19
151
FTUS41 KLWX 241138
TAFMRB
TAF
KMRB 241138Z 2412/2512 VRB03KT P6SM -RA OVC080 WS020/21035KT
     FM241300 18004KT P6SM -RA OVC080
     FM241500 18006KT P6SM OVC070
     FM241900 19010G17KT P6SM BKN060
     FM250000 21006KT P6SM BKN250
     FM251100 00000KT P6SM OVC140=

USA.gov is the U.S. government's official web portal to all federal, state and local government web resources and services.